Weather at Alberto Carnevalli Airport

Public forecast

Using degrees Celsius for public forecast. Weather courtesy of forecast.io.

Closest aviation weather report (METAR) to Alberto Carnevalli Airport

Closest report is Dr. Antonio Nicolás Briceño Airport, 57.0 nm (105.5 km) NE.

2024/07/21 12:03 (retrieved 44 minutes ago)

SVVL 211203Z AUTO ///01KT NCD ///// Q////

Closest aviation forecast (TAF) to Alberto Carnevalli Airport

Closest forecast is San Antonio Del Tachira Airport, 88.1 nm (163.1 km) WSW.

2024/07/21 12:09 (retrieved 38 minutes ago)

TAF SVSA 211000Z 2112/2212 14006KT 8000 RA SCT013 BKN020 TX28/2218Z TN20/2108Z TEMPO 2112/2114 28008KT 9000 -DZ SCT020 BKN016